Stations météo

réclame
Mon MeteoGroup
Hemavan, Suède (2104): Température de l'air & dewpoint: 11.07.2018 13:00:00 - 17.07.2018 13:00:00 (CEST)Hemavan, Suède (2104): Vitesse du vent: 11.07.2018 13:00:00 - 17.07.2018 13:00:00 (CEST)Hemavan, Suède (2104): Direction du vent: 11.07.2018 13:00:00 - 17.07.2018 13:00:00 (CEST)Hemavan, Suède (2104): visibility: 11.07.2018 13:00:00 - 17.07.2018 13:00:00 (CEST)
Date & Time tt [°C] td [°C] ff [km/h] ff [knt] dd vv [km]
17.07.2018 13:00:00 28,0 11,0 21 11 SSE 10
17.07.2018 12:00:00 27,0 13,0 16 9 SSE 10
17.07.2018 11:00:00 26,0 14,0 15 8 SSE 10
17.07.2018 10:00:00 24,0 15,0 13 7 SE 10
17.07.2018 09:00:00 22,0 15,0 5 3 ESE 10
17.07.2018 08:00:00 19,0 15,0 4 2 WNW 10
17.07.2018 07:00:00 17,0 14,0 0 0 N 10
17.07.2018 06:00:00 13,0 13,0 0 0 N 10
17.07.2018 05:00:00 10,0 10,0 2 1 - 10
17.07.2018 04:00:00 10,0 9,0 0 0 N 0,5
17.07.2018 03:00:00 11,0 11,0 0 0 N 8
17.07.2018 02:00:00 12,0 12,0 0 0 N 10
17.07.2018 01:00:00 14,0 13,0 4 2 NNW 10
17.07.2018 00:00:00 16,0 14,0 0 0 N 10
16.07.2018 23:00:00 17,0 15,0 5 3 SSE 10
16.07.2018 22:00:00 20,0 16,0 5 3 SE 10
16.07.2018 21:00:00 24,0 15,0 5 3 SE 10
16.07.2018 20:00:00 24,0 12,0 9 5 SE 10
16.07.2018 19:00:00 25,0 12,0 13 7 SSE 10
16.07.2018 18:00:00 25,0 13,0 9 5 SSE 10
16.07.2018 17:00:00 27,0 13,0 11 6 SSE 10
16.07.2018 16:00:00 26,0 13,0 11 6 SSE 10
16.07.2018 15:00:00 26,0 14,0 8 4 SE 10
16.07.2018 14:00:00 24,0 13,0 5 3 - 10
16.07.2018 13:00:00 23,0 13,0 9 5 SE 10
16.07.2018 12:00:00 23,0 13,0 4 2 - 10
16.07.2018 11:00:00 21,0 13,0 4 2 - 10
16.07.2018 10:00:00 20,0 12,0 5 3 - 10
16.07.2018 09:00:00 18,0 12,0 5 3 SSE 10
16.07.2018 08:00:00 16,0 12,0 5 3 SSE 10
16.07.2018 07:00:00 14,0 12,0 0 0 N 10
16.07.2018 06:00:00 12,0 12,0 5 3 - 10
16.07.2018 05:00:00 12,0 11,0 0 0 N 10
16.07.2018 04:00:00 11,0 11,0 0 0 N 10
16.07.2018 03:00:00 10,0 10,0 4 2 N 10
16.07.2018 02:00:00 10,0 9,0 0 0 N 10
16.07.2018 01:00:00 11,0 10,0 4 2 ESE 10
16.07.2018 00:00:00 12,0 11,0 0 0 N 10
15.07.2018 23:00:00 14,0 12,0 0 0 N 10
15.07.2018 22:00:00 15,0 11,0 5 3 WNW 10
15.07.2018 21:00:00 15,0 11,0 5 3 NNW 10
15.07.2018 20:00:00 16,0 11,0 2 1 - 10
15.07.2018 19:00:00 15,0 11,0 5 3 E 10
15.07.2018 18:00:00 15,0 11,0 4 2 - 10
15.07.2018 17:00:00 15,0 11,0 11 6 N 10
15.07.2018 16:00:00 15,0 10,0 5 3 N 10
15.07.2018 15:00:00 15,0 11,0 5 3 N 10
15.07.2018 14:00:00 15,0 10,0 9 5 NNW 10
15.07.2018 13:00:00 16,0 10,0 13 7 W 10
15.07.2018 12:00:00 16,0 9,0 5 3 W 10
15.07.2018 11:00:00 16,0 7,0 4 2 - 10
15.07.2018 10:00:00 15,0 9,0 5 3 - 10
15.07.2018 09:00:00 15,0 9,0 2 1 - 10
15.07.2018 08:00:00 13,0 10,0 4 2 N 10
15.07.2018 07:00:00 12,0 11,0 0 0 N 10
15.07.2018 06:00:00 11,0 10,0 0 0 N 10
15.07.2018 05:00:00 9,0 8,0 0 0 N 10
15.07.2018 04:00:00 8,0 8,0 4 2 - 10
15.07.2018 03:00:00 9,0 9,0 0 0 N 10
15.07.2018 02:00:00 9,0 9,0 4 2 - 10
15.07.2018 01:00:00 10,0 9,0 0 0 N 10
15.07.2018 00:00:00 11,0 10,0 4 2 NNE 10
14.07.2018 23:00:00 12,0 10,0 9 5 N 10
14.07.2018 22:00:00 15,0 10,0 9 5 NNW 10
14.07.2018 21:00:00 18,0 11,0 8 4 NW 10
14.07.2018 20:00:00 19,0 10,0 9 5 WNW 10
14.07.2018 19:00:00 19,0 10,0 11 6 NW 10
14.07.2018 18:00:00 20,0 10,0 9 5 NNW 10
14.07.2018 17:00:00 20,0 10,0 11 6 NW 10
14.07.2018 16:00:00 20,0 10,0 11 6 NW 10
14.07.2018 15:00:00 20,0 9,0 16 9 NW 10
14.07.2018 14:00:00 20,0 8,0 9 5 NW 10
14.07.2018 13:00:00 19,0 6,0 9 5 NW 10
14.07.2018 12:00:00 18,0 6,0 8 4 NNW 10
14.07.2018 11:00:00 17,0 8,0 8 4 NNW 10
14.07.2018 10:00:00 16,0 9,0 9 5 N 10
14.07.2018 09:00:00 14,0 8,0 8 4 N 10
14.07.2018 08:00:00 13,0 9,0 8 4 N 10
14.07.2018 07:00:00 11,0 9,0 2 1 - 10
14.07.2018 06:00:00 8,0 8,0 0 0 N 10
14.07.2018 05:00:00 7,0 6,0 0 0 N 1,1
14.07.2018 04:00:00 6,0 6,0 0 0 N 6
14.07.2018 03:00:00 7,0 7,0 0 0 N 10
14.07.2018 02:00:00 7,0 7,0 0 0 N 10
14.07.2018 01:00:00 9,0 9,0 0 0 N 10
14.07.2018 00:00:00 10,0 9,0 4 2 - 10
13.07.2018 23:00:00 14,0 8,0 4 2 N 10
13.07.2018 22:00:00 16,0 8,0 8 4 NNW 10
13.07.2018 21:00:00 18,0 8,0 8 4 NW 10
13.07.2018 20:00:00 18,0 8,0 15 8 NW 10
13.07.2018 19:00:00 21,0 8,0 9 5 WNW 10
13.07.2018 18:00:00 21,0 7,0 13 7 W 10
13.07.2018 17:00:00 22,0 9,0 13 7 W 10
13.07.2018 16:00:00 21,0 7,0 15 8 W 10
13.07.2018 15:00:00 21,0 9,0 15 8 NW 10
13.07.2018 14:00:00 21,0 8,0 11 6 NW 10
13.07.2018 13:00:00 20,0 9,0 8 4 NW 10
13.07.2018 12:00:00 19,0 9,0 9 5 NW 10
13.07.2018 11:00:00 17,0 8,0 11 6 NNW 10
13.07.2018 10:00:00 17,0 7,0 5 3 N 10
13.07.2018 09:00:00 16,0 7,0 11 6 NNW 10
13.07.2018 08:00:00 15,0 8,0 13 7 NNW 10
13.07.2018 07:00:00 14,0 8,0 9 5 NNW 10
13.07.2018 06:00:00 13,0 8,0 5 3 N 10
13.07.2018 05:00:00 11,0 9,0 4 2 - 10
13.07.2018 04:00:00 11,0 8,0 0 0 N 10
13.07.2018 03:00:00 11,0 9,0 2 1 - 10
13.07.2018 02:00:00 13,0 8,0 5 3 - 10
13.07.2018 01:00:00 12,0 9,0 8 4 N 10
13.07.2018 00:00:00 13,0 11,0 5 3 - 10
12.07.2018 23:00:00 16,0 8,0 8 4 NW 10
12.07.2018 22:00:00 18,0 9,0 4 2 - 10
12.07.2018 21:00:00 17,0 16,0 4 2 - 10
12.07.2018 20:00:00 18,0 15,0 4 2 - 10
12.07.2018 19:00:00 17,0 15,0 5 3 W 10
12.07.2018 18:00:00 19,0 16,0 5 3 - 10
12.07.2018 17:00:00 20,0 14,0 11 6 WNW 10
12.07.2018 16:00:00 21,0 11,0 11 6 NNE 10
12.07.2018 15:00:00 23,0 11,0 21 11 NW 10
12.07.2018 14:00:00 24,0 11,0 11 6 NW 10
12.07.2018 13:00:00 24,0 12,0 11 6 NW 10
12.07.2018 12:00:00 23,0 11,0 5 3 - 10
12.07.2018 11:00:00 21,0 11,0 5 3 NW 10
12.07.2018 10:00:00 21,0 12,0 4 2 - 10
12.07.2018 09:00:00 18,0 13,0 11 6 N 10
12.07.2018 08:00:00 20,0 10,0 8 4 SSE 10
12.07.2018 07:00:00 19,0 10,0 5 3 - 10
12.07.2018 06:00:00 16,0 13,0 5 3 - 10
12.07.2018 05:00:00 15,0 13,0 2 1 - 10
12.07.2018 04:00:00 14,0 12,0 4 2 - 10
12.07.2018 03:00:00 14,0 12,0 4 2 - 10
12.07.2018 02:00:00 14,0 12,0 4 2 - 10
12.07.2018 01:00:00 16,0 13,0 4 2 - 10
12.07.2018 00:00:00 17,0 13,0 5 3 NW 10
11.07.2018 23:00:00 18,0 12,0 8 4 SE 10
11.07.2018 22:00:00 21,0 12,0 9 5 SE 10
11.07.2018 21:00:00 23,0 11,0 13 7 SSE 10
11.07.2018 20:00:00 23,0 12,0 9 5 SE 10
11.07.2018 19:00:00 22,0 12,0 9 5 SSE 10
11.07.2018 18:00:00 25,0 10,0 13 7 SSE 10
11.07.2018 17:00:00 25,0 11,0 16 9 SSE 10
11.07.2018 16:00:00 24,0 11,0 11 6 SE 10
11.07.2018 15:00:00 25,0 10,0 8 4 SSE 10
11.07.2018 14:00:00 25,0 10,0 11 6 SSE 10
11.07.2018 13:00:00 25,0 10,0 8 4 - 10

tt = Température de l'air
td = dewpoint
ff = Vitesse du vent
dd = Direction du vent
vv = visibility

stations d'obs. à proximité